WetterOnline ( https://www.wetteronline.at )

Wetter aktuell Oldsum

Aktuelles Wetter: St. Peter-Ording (11m)

6-stündlich | Neueste Meldungen
Ortszeit Temperatur Wetter
Mo, 06.02. 1:00 2.8° C wolkig
So, 05.02. 19:00 3.9° C wolkig
So, 05.02. 13:00 3.6° C bewölkt
So, 05.02. 7:00 1.3° C Regen
So, 05.02. 1:00 1.7° C bewölkt
Sa, 04.02. 19:00 0.6° C wolkig
Sa, 04.02. 13:00 3.3° C bedeckt
Sa, 04.02. 7:00 0.2° C bedeckt
Ortszeit Temperatur Wetter
Mo, 06.02. 5:00 3.6° C wolkig
Mo, 06.02. 4:50 3.6° C wolkig
Mo, 06.02. 4:40 3.7° C wolkig
Mo, 06.02. 4:30 3.8° C leicht bewölkt
Mo, 06.02. 4:20 3.8° C leicht bewölkt
Mo, 06.02. 4:10 4.0° C leicht bewölkt
Mo, 06.02. 4:00 4.2° C bewölkt
Mo, 06.02. 3:30 3.2° C leicht bewölkt
Mo, 06.02. 3:00 2.8° C bedeckt
Mo, 06.02. 2:30 2.9° C bedeckt
Mo, 06.02. 2:00 2.5° C leicht bewölkt
Ortszeit Relative Feuchte Sichtweite
Mo, 06.02. 1:00 98% 8 km
So, 05.02. 19:00 84% 18 km
So, 05.02. 13:00 93% 13 km
So, 05.02. 7:00 93% 30 km
So, 05.02. 1:00 84% 45 km
Sa, 04.02. 19:00 91% 40 km
Sa, 04.02. 13:00 82% 40 km
Sa, 04.02. 7:00 97% 22 km
Ortszeit Relative Feuchte Sichtweite
Mo, 06.02. 5:00 99% 9 km
Mo, 06.02. 4:50 99% -
Mo, 06.02. 4:40 99% -
Mo, 06.02. 4:30 99% 8 km
Mo, 06.02. 4:20 99% -
Mo, 06.02. 4:10 98% -
Mo, 06.02. 4:00 98% 9 km
Mo, 06.02. 3:30 97% 7 km
Mo, 06.02. 3:00 98% 7 km
Mo, 06.02. 2:30 98% 7 km
Mo, 06.02. 2:00 97% 7 km
Ortszeit Niederschlagsmenge Niederschlagsart
Mo, 06.02. 1:00 0.0 l/m2 in 6 Std. -
So, 05.02. 19:00 1 l/m2 in 12 Std. -
So, 05.02. 13:00 1 l/m2 in 6 Std. Schnee, Niederschlag
So, 05.02. 7:00 0.6 l/m2 in 12 Std. Schnee, Niederschlag
So, 05.02. 1:00 0.0 l/m2 in 6 Std. -
Sa, 04.02. 19:00 0.0 l/m2 in 12 Std. -
Sa, 04.02. 13:00 0.0 l/m2 in 6 Std. -
Sa, 04.02. 7:00 0.1 l/m2 in 12 Std. -
Ortszeit Niederschlagsmenge Niederschlagsart
Mo, 06.02. 5:00 0.0 l/m2 in 1 Std. -
Mo, 06.02. 4:50 keine Meldung -
Mo, 06.02. 4:40 keine Meldung -
Mo, 06.02. 4:30 0.0 l/m2 in 30 Min -
Mo, 06.02. 4:20 keine Meldung -
Mo, 06.02. 4:10 keine Meldung -
Mo, 06.02. 4:00 0.0 l/m2 in 1 Std. -
Mo, 06.02. 3:30 0.0 l/m2 in 30 Min -
Mo, 06.02. 3:00 0.0 l/m2 in 1 Std. -
Mo, 06.02. 2:30 0.0 l/m2 in 30 Min -
Mo, 06.02. 2:00 0.0 l/m2 in 1 Std. -
Ortszeit Stärke Spitze Richtung
km/h Bft. km/h Grad Sektor
Mo, 06.02. 1:00 11 2 36 350° N
So, 05.02. 19:00 22 4 32 350° N
So, 05.02. 13:00 4 1 29 130° SO
So, 05.02. 7:00 14 3 36 160° S
So, 05.02. 1:00 17 3 28 150° SO
Sa, 04.02. 19:00 11 2 18 120° SO
Sa, 04.02. 13:00 11 2 14 110° O
Sa, 04.02. 7:00 7 2 25 50° NO
Ortszeit Stärke Spitze Richtung
km/h Bft. km/h Grad Sektor
Mo, 06.02. 5:00 11 2 22 340° N
Mo, 06.02. 4:50 11 2 - 340° N
Mo, 06.02. 4:40 13 3 - 340° N
Mo, 06.02. 4:30 14 3 22 330° NW
Mo, 06.02. 4:20 14 3 - 330° NW
Mo, 06.02. 4:10 18 3 - 330° NW
Mo, 06.02. 4:00 18 3 22 330° NW
Mo, 06.02. 3:30 15 3 19 330° NW
Mo, 06.02. 3:00 9 2 13 330° NW
Mo, 06.02. 2:30 9 2 13 350° N
Mo, 06.02. 2:00 11 2 15 340° N
Ortszeit Untergrenze Bedeckung Gattung
total tief tief mittel hoch
Mo, 06.02. 1:00 4800 m 5/8 5/8 - - -
So, 05.02. 19:00 7500 m 8/8 0/8 - - -
So, 05.02. 13:00 630 m 8/8 7/8 - - -
So, 05.02. 7:00 1140 m 7/8 7/8 - - -
So, 05.02. 1:00 2100 m 7/8 7/8 - - -
Sa, 04.02. 19:00 7800 m 8/8 0/8 - - -
Sa, 04.02. 13:00 4800 m 8/8 8/8 - - -
Sa, 04.02. 7:00 4200 m 8/8 8/8 - - -
Ortszeit Bedeckungsgrad in Achtel und Wolkenuntergrenze
Mo, 06.02. 5:00 2(630m) 4(9000m) 7(9000m)
Mo, 06.02. 4:50 2(630m) 4(9000m) 7(9000m)
Mo, 06.02. 4:40 5
Mo, 06.02. 4:30 2(690m)
Mo, 06.02. 4:20 2(690m)
Mo, 06.02. 4:10 4
Mo, 06.02. 4:00 7(570m)
Mo, 06.02. 3:30 1(510m) 5(3600m) 5(4200m)
Mo, 06.02. 3:00 8(3300m)
Mo, 06.02. 2:30 6(3600m) 7(4200m) 8(5400m)
Mo, 06.02. 2:00 4(6000m)
Ortszeit Luftdruck NN (hPa) Tendenz (hPa in 3 Std.)
Mo, 06.02. 1:00 1041 + 0,5
So, 05.02. 19:00 1039 + 1,6
So, 05.02. 13:00 1036 + 1,2
So, 05.02. 7:00 1034 - 1,7
So, 05.02. 1:00 1037 - 1,1
Sa, 04.02. 19:00 1039 + 0,2
Sa, 04.02. 13:00 1038 + 0,9
Sa, 04.02. 7:00 1035 + 2,3
Ortszeit Luftdruck NN (hPa) Tendenz (hPa in 3 Std.)
Mo, 06.02. 5:00 1041 + 0,2
Mo, 06.02. 4:50 1041 keine Meldung
Mo, 06.02. 4:40 1041 keine Meldung
Mo, 06.02. 4:30 1041 - 0,3
Mo, 06.02. 4:20 1041 keine Meldung
Mo, 06.02. 4:10 1041 keine Meldung
Mo, 06.02. 4:00 1041 - 0,1
Mo, 06.02. 3:30 1041 0,0
Mo, 06.02. 3:00 1041 - 0,2
Mo, 06.02. 2:30 1041 0,0
Mo, 06.02. 2:00 1041 - 0,1
Ortszeit Schneehöhe (cm)
Mo, 06.02. 1:00 0
So, 05.02. 19:00 0
So, 05.02. 13:00 0
So, 05.02. 7:00 0
So, 05.02. 1:00 0
Sa, 04.02. 19:00 0
Sa, 04.02. 13:00 0
Sa, 04.02. 7:00 0
Ortszeit Schneehöhe (cm)
Mo, 06.02. 5:00 0
Mo, 06.02. 4:50 0
Mo, 06.02. 4:40 0
Mo, 06.02. 4:30 0
Mo, 06.02. 4:20 0
Mo, 06.02. 4:10 0
Mo, 06.02. 4:00 0
Mo, 06.02. 3:30 0
Mo, 06.02. 3:00 0
Mo, 06.02. 2:30 0
Mo, 06.02. 2:00 0
Link zu dieser Seite / Seite empfehlen

Das Wetter in ...